createdAt,value
2018-08-04T00:01:59.211Z,5.10
2018-08-04T00:04:28.614Z,4.47
2018-08-04T00:06:57.837Z,4.30
2018-08-04T00:09:27.131Z,4.60
2018-08-04T00:11:56.354Z,5.03
2018-08-04T00:14:25.334Z,4.20
2018-08-04T00:16:54.545Z,4.17
2018-08-04T00:19:23.604Z,5.07
2018-08-04T00:21:52.688Z,4.67
2018-08-04T00:24:21.934Z,4.37
2018-08-04T00:26:51.095Z,5.00
2018-08-04T00:29:20.177Z,4.53
2018-08-04T00:31:49.386Z,4.57
2018-08-04T00:34:18.385Z,4.53
2018-08-04T00:36:47.603Z,6.67
2018-08-04T00:39:16.867Z,4.73
2018-08-04T00:41:45.878Z,4.00
2018-08-04T00:44:14.839Z,4.63
2018-08-04T00:46:43.962Z,4.40
2018-08-04T00:49:12.981Z,4.07
2018-08-04T00:51:41.983Z,4.87
2018-08-04T00:54:11.245Z,4.03
2018-08-04T00:56:40.419Z,4.60
2018-08-04T00:59:09.524Z,4.10
2018-08-04T01:01:38.635Z,4.50
2018-08-04T01:04:07.611Z,4.33
2018-08-04T01:06:36.721Z,4.10
2018-08-04T01:09:07.977Z,4.23
2018-08-04T01:11:37.074Z,3.87
2018-08-04T01:14:06.250Z,4.00
2018-08-04T01:16:35.317Z,4.80
2018-08-04T01:19:04.593Z,5.37
2018-08-04T01:21:33.584Z,5.00
2018-08-04T01:24:02.971Z,5.17
2018-08-04T01:26:31.978Z,4.60
2018-08-04T01:29:00.876Z,5.30
2018-08-04T01:31:30.167Z,4.90
2018-08-04T01:33:59.077Z,4.33
2018-08-04T01:36:28.060Z,4.47
2018-08-04T01:38:57.951Z,4.20
2018-08-04T01:41:26.850Z,4.17
2018-08-04T01:43:56.298Z,4.17
2018-08-04T01:46:25.245Z,4.43
2018-08-04T01:48:54.285Z,4.70
2018-08-04T01:51:23.333Z,4.60
2018-08-04T01:53:52.427Z,4.03
2018-08-04T01:56:21.542Z,3.70
2018-08-04T01:58:50.733Z,3.73
2018-08-04T02:01:19.836Z,4.00
2018-08-04T02:03:49.075Z,3.53
2018-08-04T02:06:18.401Z,3.47
2018-08-04T02:08:47.635Z,3.50
2018-08-04T02:11:16.786Z,3.90
2018-08-04T02:13:45.845Z,3.60
2018-08-04T02:16:15.017Z,3.03
2018-08-04T02:18:44.197Z,3.80
2018-08-04T02:21:13.401Z,3.60
2018-08-04T02:23:42.400Z,3.63
2018-08-04T02:26:11.488Z,3.20
2018-08-04T02:28:40.478Z,3.00
2018-08-04T02:31:09.486Z,3.40
2018-08-04T02:33:38.453Z,4.30
2018-08-04T02:36:07.570Z,3.70
2018-08-04T02:38:36.560Z,3.70
2018-08-04T02:41:05.827Z,3.37
2018-08-04T02:43:35.061Z,3.90
2018-08-04T02:46:04.253Z,3.20
2018-08-04T02:48:33.352Z,3.50
2018-08-04T02:51:02.419Z,3.23
2018-08-04T02:53:31.434Z,3.50
2018-08-04T02:56:00.406Z,3.57
2018-08-04T02:58:29.602Z,3.83
2018-08-04T03:00:58.811Z,3.67
2018-08-04T03:03:27.806Z,4.43
2018-08-04T03:05:56.896Z,3.87
2018-08-04T03:08:26.148Z,3.47
2018-08-04T03:10:55.170Z,4.00
2018-08-04T03:13:24.459Z,3.67
2018-08-04T03:15:53.479Z,2.87
2018-08-04T03:18:22.572Z,4.00
2018-08-04T03:20:51.671Z,3.57
2018-08-04T03:23:20.636Z,3.57
2018-08-04T03:25:49.743Z,3.30
2018-08-04T03:28:18.730Z,3.47
2018-08-04T03:30:47.700Z,3.70
2018-08-04T03:33:16.613Z,3.70
2018-08-04T03:35:45.895Z,3.33
2018-08-04T03:38:14.941Z,3.80
2018-08-04T03:40:43.986Z,3.53
2018-08-04T03:43:12.925Z,4.07
2018-08-04T03:45:42.052Z,3.20
2018-08-04T03:48:11.071Z,3.40
2018-08-04T03:50:40.154Z,3.80
2018-08-04T03:53:09.285Z,3.27
2018-08-04T03:55:38.240Z,3.50
2018-08-04T03:58:07.249Z,3.53
2018-08-04T04:00:36.344Z,3.77
2018-08-04T04:03:05.521Z,3.47
2018-08-04T04:05:34.679Z,3.60
2018-08-04T04:08:03.742Z,3.40
2018-08-04T04:10:32.937Z,3.90
2018-08-04T04:13:02.010Z,3.63
2018-08-04T04:15:31.263Z,3.43
2018-08-04T04:18:00.407Z,3.40
2018-08-04T04:20:29.618Z,3.67
2018-08-04T04:22:58.728Z,3.13
2018-08-04T04:25:28.158Z,3.77
2018-08-04T04:27:57.420Z,3.23
2018-08-04T04:30:26.493Z,3.70
2018-08-04T04:32:55.398Z,3.80
2018-08-04T04:35:24.463Z,4.13
2018-08-04T04:37:53.449Z,4.00
2018-08-04T04:40:22.689Z,3.60
2018-08-04T04:42:51.636Z,3.13
2018-08-04T04:45:21.029Z,3.53
2018-08-04T04:47:49.949Z,3.13
2018-08-04T04:50:19.042Z,3.20
2018-08-04T04:52:48.062Z,3.50
2018-08-04T04:55:17.703Z,2.93
2018-08-04T04:57:46.781Z,3.27
2018-08-04T05:00:16.006Z,3.47
2018-08-04T05:02:45.241Z,3.17
2018-08-04T05:05:14.553Z,3.90
2018-08-04T05:07:43.654Z,3.10
2018-08-04T05:10:12.794Z,4.00
2018-08-04T05:12:42.319Z,3.80
2018-08-04T05:15:11.694Z,8.00
2018-08-04T05:17:40.884Z,4.20
2018-08-04T05:20:09.926Z,3.50
2018-08-04T05:22:38.883Z,2.87
2018-08-04T05:25:08.382Z,4.60
2018-08-04T05:27:37.391Z,3.87
2018-08-04T05:30:07.680Z,3.60
2018-08-04T05:32:37.040Z,3.77
2018-08-04T05:35:05.762Z,4.23
2018-08-04T05:37:35.119Z,3.23
2018-08-04T05:40:04.282Z,3.43
2018-08-04T05:42:33.542Z,3.50
2018-08-04T05:45:02.727Z,3.67
2018-08-04T05:47:32.155Z,3.37
2018-08-04T05:50:03.079Z,3.23
2018-08-04T05:52:32.373Z,3.10
2018-08-04T05:55:01.441Z,3.43
2018-08-04T05:57:30.501Z,3.37
2018-08-04T05:59:59.560Z,2.90
2018-08-04T06:02:28.718Z,2.73
2018-08-04T06:04:57.854Z,4.07
2018-08-04T06:07:26.627Z,3.23
2018-08-04T06:09:55.961Z,3.27
2018-08-04T06:12:25.339Z,3.03
2018-08-04T06:14:54.612Z,2.80
2018-08-04T06:17:23.681Z,3.07
2018-08-04T06:19:52.877Z,2.83
2018-08-04T06:22:21.977Z,3.30
2018-08-04T06:24:51.181Z,2.87
2018-08-04T06:27:20.342Z,2.97
2018-08-04T06:29:49.454Z,3.10
2018-08-04T06:32:18.685Z,2.87
2018-08-04T06:34:47.804Z,3.10
2018-08-04T06:37:16.719Z,2.80
2018-08-04T06:39:45.909Z,3.33
2018-08-04T06:42:14.935Z,3.00
2018-08-04T06:44:44.164Z,2.57
2018-08-04T06:47:13.141Z,2.80
2018-08-04T06:49:42.204Z,2.80
2018-08-04T06:52:11.233Z,3.00
2018-08-04T06:54:40.446Z,3.23
2018-08-04T06:57:09.371Z,2.90
2018-08-04T06:59:38.686Z,2.80
2018-08-04T07:02:07.895Z,3.13
2018-08-04T07:04:36.877Z,2.43
2018-08-04T07:07:06.584Z,2.80
2018-08-04T07:09:35.694Z,2.47
2018-08-04T07:12:04.670Z,3.40
2018-08-04T07:14:33.763Z,3.10
2018-08-04T07:17:03.077Z,2.60
2018-08-04T07:19:32.252Z,2.75
2018-08-04T07:22:01.360Z,2.67
2018-08-04T07:24:30.665Z,3.00
2018-08-04T07:26:59.867Z,2.45
2018-08-04T07:29:29.257Z,2.67
2018-08-04T07:31:58.715Z,2.33
2018-08-04T07:34:27.619Z,2.92
2018-08-04T07:36:57.437Z,2.95
2018-08-04T07:39:26.927Z,2.60
2018-08-04T07:41:56.056Z,2.58
2018-08-04T07:44:25.121Z,2.83
2018-08-04T07:46:54.711Z,2.85
2018-08-04T07:49:23.845Z,3.10
2018-08-04T07:51:52.945Z,2.33
2018-08-04T07:54:22.099Z,2.60
2018-08-04T07:56:51.156Z,2.85
2018-08-04T07:59:19.974Z,2.62
2018-08-04T08:01:49.185Z,2.62
2018-08-04T08:04:18.665Z,2.90
2018-08-04T08:06:47.521Z,2.70
2018-08-04T08:09:16.613Z,2.45
2018-08-04T08:11:45.737Z,2.37
2018-08-04T08:14:14.774Z,2.67
2018-08-04T08:16:44.312Z,2.50
2018-08-04T08:19:13.575Z,2.08
2018-08-04T08:21:42.788Z,2.47
2018-08-04T08:24:12.147Z,2.92
2018-08-04T08:26:41.293Z,2.65
2018-08-04T08:29:10.912Z,2.25
2018-08-04T08:31:39.611Z,2.62
2018-08-04T08:34:08.825Z,2.35
2018-08-04T08:36:37.966Z,2.62
2018-08-04T08:39:07.309Z,2.55
2018-08-04T08:41:36.375Z,2.40
2018-08-04T08:44:05.728Z,2.55
2018-08-04T08:46:34.888Z,2.60
2018-08-04T08:49:04.469Z,2.20
2018-08-04T08:51:33.842Z,2.45
2018-08-04T08:54:03.190Z,2.25
2018-08-04T08:56:33.590Z,2.20
2018-08-04T08:59:02.681Z,2.22
2018-08-04T09:01:32.084Z,2.20
2018-08-04T09:04:01.512Z,2.40
2018-08-04T09:06:30.309Z,2.22
2018-08-04T09:08:59.667Z,2.20
2018-08-04T09:11:28.887Z,2.15
2018-08-04T09:13:58.133Z,2.15
2018-08-04T09:16:27.556Z,2.10
2018-08-04T09:18:56.805Z,1.70
2018-08-04T09:21:25.857Z,2.02
2018-08-04T09:23:55.006Z,2.00
2018-08-04T09:26:24.389Z,1.87
2018-08-04T09:28:54.200Z,2.33
2018-08-04T09:31:23.318Z,2.50
2018-08-04T09:33:53.160Z,1.90
2018-08-04T09:36:22.487Z,2.20
2018-08-04T09:38:51.834Z,2.12
2018-08-04T09:41:21.374Z,2.05
2018-08-04T09:43:50.968Z,2.00
2018-08-04T09:46:20.351Z,2.42
2018-08-04T09:48:49.561Z,1.90
2018-08-04T09:51:18.899Z,2.00
2018-08-04T09:53:48.205Z,2.17
2018-08-04T09:56:17.752Z,1.82
2018-08-04T09:58:46.916Z,1.77
2018-08-04T10:01:21.216Z,2.00
2018-08-04T10:03:50.530Z,2.08
2018-08-04T10:06:19.950Z,1.85
2018-08-04T10:08:49.536Z,1.95
2018-08-04T10:11:18.789Z,1.80
2018-08-04T10:13:47.912Z,2.20
2018-08-04T10:16:17.241Z,2.17
2018-08-04T10:18:46.540Z,1.98
2018-08-04T10:21:15.677Z,2.47
2018-08-04T10:23:44.993Z,2.12
2018-08-04T10:26:14.292Z,2.52
2018-08-04T10:28:43.456Z,2.02
2018-08-04T10:31:12.811Z,2.50
2018-08-04T10:33:41.655Z,2.22
2018-08-04T10:36:10.845Z,2.80
2018-08-04T10:38:40.488Z,2.05
2018-08-04T10:41:09.694Z,2.58
2018-08-04T10:43:38.982Z,2.33
2018-08-04T10:46:08.058Z,3.33
2018-08-04T10:48:37.158Z,2.02
2018-08-04T10:51:06.368Z,2.37
2018-08-04T10:53:35.474Z,2.25
2018-08-04T10:56:04.826Z,2.50
2018-08-04T10:58:34.513Z,2.40
2018-08-04T11:01:03.955Z,2.55
2018-08-04T11:03:33.027Z,2.77
2018-08-04T11:06:02.678Z,2.17
2018-08-04T11:08:32.637Z,2.47
2018-08-04T11:11:02.341Z,2.12
2018-08-04T11:13:31.629Z,2.83
2018-08-04T11:16:01.097Z,2.42
2018-08-04T11:18:30.424Z,2.50
2018-08-04T11:20:59.593Z,3.33
2018-08-04T11:23:28.680Z,2.72
2018-08-04T11:25:57.838Z,2.33
2018-08-04T11:28:27.275Z,2.87
2018-08-04T11:30:56.455Z,2.70
2018-08-04T11:33:25.967Z,2.87
2018-08-04T11:35:55.396Z,2.20
2018-08-04T11:38:24.785Z,2.70
2018-08-04T11:40:53.973Z,2.73
2018-08-04T11:43:23.288Z,2.77
2018-08-04T11:45:52.373Z,3.20
2018-08-04T11:48:21.664Z,2.70
2018-08-04T11:50:51.077Z,2.80
2018-08-04T11:53:20.161Z,2.33
2018-08-04T11:55:49.730Z,3.50
2018-08-04T11:58:19.007Z,2.65
2018-08-04T12:00:48.187Z,2.73
2018-08-04T12:03:17.692Z,2.73
2018-08-04T12:05:47.376Z,2.73
2018-08-04T12:08:16.538Z,3.43
2018-08-04T12:10:46.005Z,2.53
2018-08-04T12:13:15.542Z,3.40
2018-08-04T12:15:45.102Z,2.90
2018-08-04T12:18:14.163Z,2.90
2018-08-04T12:20:43.539Z,2.80
2018-08-04T12:23:12.650Z,2.90
2018-08-04T12:25:41.865Z,3.13
2018-08-04T12:28:10.788Z,2.20
2018-08-04T12:30:40.129Z,2.70
2018-08-04T12:33:09.383Z,2.50
2018-08-04T12:35:40.117Z,2.10
2018-08-04T12:38:09.281Z,2.40
2018-08-04T12:40:38.545Z,2.70
2018-08-04T12:43:07.955Z,2.50
2018-08-04T12:45:37.624Z,3.07
2018-08-04T12:48:14.244Z,2.63
2018-08-04T12:50:44.969Z,2.40
2018-08-04T12:53:14.278Z,2.50
2018-08-04T12:55:43.778Z,2.55
2018-08-04T12:58:13.935Z,1.80
2018-08-04T13:00:43.352Z,2.20
2018-08-04T13:03:12.616Z,2.20
2018-08-04T13:05:42.216Z,2.10
2018-08-04T13:08:11.676Z,1.87
2018-08-04T13:10:40.892Z,2.20
2018-08-04T13:13:11.546Z,4.43
2018-08-04T13:15:40.774Z,1.97
2018-08-04T13:18:10.234Z,2.33
2018-08-04T13:20:39.649Z,2.40
2018-08-04T13:23:08.859Z,2.33
2018-08-04T13:25:38.024Z,2.40
2018-08-04T13:28:07.540Z,1.90
2018-08-04T13:30:37.149Z,2.43
2018-08-04T13:33:06.120Z,2.53
2018-08-04T13:35:35.409Z,1.97
2018-08-04T13:38:04.483Z,2.27
2018-08-04T13:40:34.206Z,2.30
2018-08-04T13:43:03.521Z,1.83
2018-08-04T13:45:32.852Z,2.10
2018-08-04T13:48:02.039Z,2.27
2018-08-04T13:50:31.247Z,2.10
2018-08-04T13:53:00.407Z,2.10
2018-08-04T13:55:29.926Z,2.27
2018-08-04T13:57:59.275Z,2.00
2018-08-04T14:00:28.701Z,2.43
2018-08-04T14:02:58.500Z,2.40
2018-08-04T14:05:27.919Z,2.33
2018-08-04T14:07:57.609Z,2.43
2018-08-04T14:10:27.194Z,2.20
2018-08-04T14:12:56.832Z,1.90
2018-08-04T14:15:25.981Z,2.23
2018-08-04T14:17:55.266Z,2.77
2018-08-04T14:20:24.809Z,2.47
2018-08-04T14:22:54.303Z,2.20
2018-08-04T14:25:23.435Z,2.57
2018-08-04T14:27:52.956Z,2.10
2018-08-04T14:30:22.516Z,2.30
2018-08-04T14:32:52.169Z,2.17
2018-08-04T14:35:21.742Z,2.33
2018-08-04T14:37:51.228Z,1.80
2018-08-04T14:40:20.599Z,2.07
2018-08-04T14:42:49.933Z,2.07
2018-08-04T14:45:19.501Z,2.07
2018-08-04T14:47:48.761Z,2.00
2018-08-04T14:50:18.072Z,2.40
2018-08-04T14:52:47.075Z,2.03
2018-08-04T14:55:16.664Z,2.13
2018-08-04T14:57:46.395Z,2.17
2018-08-04T15:00:15.880Z,2.50
2018-08-04T15:02:45.510Z,2.30
2018-08-04T15:05:14.992Z,1.93
2018-08-04T15:07:44.633Z,1.93
2018-08-04T15:10:13.814Z,2.00
2018-08-04T15:12:43.571Z,2.23
2018-08-04T15:15:13.002Z,2.40
2018-08-04T15:17:42.777Z,2.13
2018-08-04T15:20:11.901Z,2.43
2018-08-04T15:22:41.320Z,2.13
2018-08-04T15:25:11.080Z,2.60
2018-08-04T15:27:40.854Z,3.00
2018-08-04T15:30:10.073Z,2.47
2018-08-04T15:32:39.396Z,2.00
2018-08-04T15:35:08.985Z,2.10
2018-08-04T15:37:38.280Z,1.90
2018-08-04T15:40:07.569Z,2.40
2018-08-04T15:42:36.867Z,2.93
2018-08-04T15:45:06.731Z,2.03
2018-08-04T15:47:36.076Z,1.90
2018-08-04T15:50:05.733Z,2.40
2018-08-04T15:52:34.712Z,1.87
2018-08-04T15:55:04.336Z,2.37
2018-08-04T15:57:34.031Z,2.20
2018-08-04T16:00:03.384Z,1.77
2018-08-04T16:02:32.697Z,2.67
2018-08-04T16:05:02.331Z,2.20
2018-08-04T16:07:31.791Z,2.20
2018-08-04T16:10:00.968Z,2.47
2018-08-04T16:12:30.461Z,2.57
2018-08-04T16:14:59.939Z,2.13
2018-08-04T16:17:29.201Z,2.53
2018-08-04T16:19:58.389Z,2.23
2018-08-04T16:22:27.112Z,1.90
2018-08-04T16:24:56.423Z,2.03
2018-08-04T16:27:26.107Z,2.30
2018-08-04T16:29:55.276Z,2.10
2018-08-04T16:32:24.534Z,3.23
2018-08-04T16:34:53.595Z,1.97
2018-08-04T16:37:22.836Z,1.83
2018-08-04T16:39:51.925Z,2.70
2018-08-04T16:42:21.625Z,2.17
2018-08-04T16:44:51.148Z,2.40
2018-08-04T16:47:20.325Z,2.33
2018-08-04T16:49:50.027Z,1.70
2018-08-04T16:52:19.062Z,1.80
2018-08-04T16:54:48.143Z,2.50
2018-08-04T16:57:17.707Z,2.23
2018-08-04T16:59:46.804Z,2.27
2018-08-04T17:02:16.164Z,2.90
2018-08-04T17:04:45.567Z,2.20
2018-08-04T17:07:14.919Z,2.20
2018-08-04T17:09:44.137Z,2.40
2018-08-04T17:12:13.777Z,2.13
2018-08-04T17:14:43.014Z,2.07
2018-08-04T17:17:12.674Z,2.90
2018-08-04T17:19:41.684Z,4.77
2018-08-04T17:22:11.157Z,2.70
2018-08-04T17:24:40.310Z,2.80
2018-08-04T17:27:09.715Z,3.47
2018-08-04T17:29:39.189Z,1.97
2018-08-04T17:32:08.457Z,3.40
2018-08-04T17:34:37.698Z,3.50
2018-08-04T17:37:07.635Z,2.27
2018-08-04T17:39:37.215Z,2.63
2018-08-04T17:42:06.306Z,1.80
2018-08-04T17:44:35.621Z,2.00
2018-08-04T17:47:04.761Z,2.70
2018-08-04T17:49:33.336Z,2.87
2018-08-04T17:52:02.779Z,2.83
2018-08-04T17:54:32.088Z,3.80
2018-08-04T17:57:01.387Z,2.93
2018-08-04T17:59:30.610Z,3.50
2018-08-04T18:01:59.820Z,3.40
2018-08-04T18:04:29.109Z,2.60
2018-08-04T18:06:58.491Z,3.10
2018-08-04T18:09:32.237Z,3.10
2018-08-04T18:12:01.410Z,2.57
2018-08-04T18:14:30.889Z,2.50
2018-08-04T18:17:00.307Z,3.23
2018-08-04T18:19:29.761Z,3.00
2018-08-04T18:21:59.109Z,3.00
2018-08-04T18:24:28.097Z,2.93
2018-08-04T18:26:57.220Z,2.87
2018-08-04T18:29:26.581Z,2.83
2018-08-04T18:31:56.064Z,2.83
2018-08-04T18:34:25.980Z,2.77
2018-08-04T18:36:54.902Z,3.23
2018-08-04T18:39:23.904Z,2.90
2018-08-04T18:41:52.863Z,2.60
2018-08-04T18:44:21.849Z,2.73
2018-08-04T18:46:50.968Z,3.03
2018-08-04T18:49:20.246Z,3.23
2018-08-04T18:51:49.456Z,2.87
2018-08-04T18:54:18.646Z,3.00
2018-08-04T18:56:47.870Z,2.40
2018-08-04T18:59:17.319Z,2.67
2018-08-04T19:01:46.572Z,3.07
2018-08-04T19:04:15.769Z,2.90
2018-08-04T19:06:44.977Z,2.90
2018-08-04T19:09:14.127Z,2.97
2018-08-04T19:11:43.458Z,2.97
2018-08-04T19:14:12.647Z,2.97
2018-08-04T19:16:41.686Z,2.90
2018-08-04T19:19:10.720Z,2.50
2018-08-04T19:21:39.900Z,2.80
2018-08-04T19:24:09.153Z,2.23
2018-08-04T19:26:38.297Z,2.63
2018-08-04T19:29:07.435Z,3.50
2018-08-04T19:31:36.391Z,2.73
2018-08-04T19:34:05.907Z,2.83
2018-08-04T19:36:35.152Z,2.93
2018-08-04T19:39:06.274Z,2.70
2018-08-04T19:41:35.425Z,2.53
2018-08-04T19:44:04.524Z,2.53
2018-08-04T19:46:33.848Z,2.80
2018-08-04T19:49:03.158Z,2.37
2018-08-04T19:51:32.497Z,2.50
2018-08-04T19:54:01.635Z,2.73
2018-08-04T19:56:30.687Z,2.70
2018-08-04T19:58:59.927Z,2.97
2018-08-04T20:01:28.987Z,2.77
2018-08-04T20:03:58.233Z,2.87
2018-08-04T20:06:27.485Z,2.80
2018-08-04T20:08:56.794Z,2.30
2018-08-04T20:11:26.203Z,2.63
2018-08-04T20:13:55.297Z,2.83
2018-08-04T20:16:24.507Z,2.80
2018-08-04T20:18:53.908Z,2.77
2018-08-04T20:21:22.882Z,2.57
2018-08-04T20:23:51.957Z,2.60
2018-08-04T20:26:21.382Z,2.20
2018-08-04T20:28:50.733Z,2.43
2018-08-04T20:31:19.929Z,2.37
2018-08-04T20:33:49.064Z,2.80
2018-08-04T20:36:18.458Z,2.13
2018-08-04T20:38:47.579Z,2.60
2018-08-04T20:41:16.994Z,2.33
2018-08-04T20:43:45.554Z,2.70
2018-08-04T20:46:14.603Z,2.60
2018-08-04T20:48:43.738Z,2.20
2018-08-04T20:51:12.793Z,2.53
2018-08-04T20:53:41.996Z,2.30
2018-08-04T20:56:11.324Z,2.10
2018-08-04T20:58:40.652Z,2.43
2018-08-04T21:01:20.799Z,2.20
2018-08-04T21:03:49.833Z,2.13
2018-08-04T21:06:19.041Z,2.30
2018-08-04T21:08:48.292Z,2.20
2018-08-04T21:11:17.665Z,2.30
2018-08-04T21:13:47.189Z,2.40
2018-08-04T21:16:16.512Z,2.07
2018-08-04T21:18:45.891Z,2.33
2018-08-04T21:21:16.122Z,1.93
2018-08-04T21:23:45.411Z,2.30
2018-08-04T21:26:17.389Z,2.27
2018-08-04T21:28:46.856Z,2.17
2018-08-04T21:31:16.201Z,2.27
2018-08-04T21:33:45.643Z,2.10
2018-08-04T21:36:14.730Z,2.57
2018-08-04T21:38:44.150Z,2.30
2018-08-04T21:41:13.132Z,2.47
2018-08-04T21:43:42.259Z,2.20
2018-08-04T21:46:11.626Z,2.50
2018-08-04T21:48:40.790Z,2.40
2018-08-04T21:51:10.158Z,2.40
2018-08-04T21:53:39.665Z,2.80
2018-08-04T21:56:09.163Z,2.37
2018-08-04T21:58:44.476Z,2.50
2018-08-04T22:01:14.637Z,2.27
2018-08-04T22:03:45.040Z,2.70
2018-08-04T22:06:15.541Z,2.40
2018-08-04T22:08:56.001Z,2.30
2018-08-04T22:11:25.345Z,2.40
2018-08-04T22:13:54.400Z,2.17
2018-08-04T22:16:23.616Z,2.63
2018-08-04T22:18:52.873Z,2.70
2018-08-04T22:21:22.225Z,3.80
2018-08-04T22:23:51.267Z,3.00
2018-08-04T22:26:20.403Z,3.30
2018-08-04T22:28:49.701Z,2.97
2018-08-04T22:31:18.895Z,3.17
2018-08-04T22:33:48.319Z,2.60
2018-08-04T22:36:17.403Z,2.50
2018-08-04T22:38:46.603Z,3.03
2018-08-04T22:41:15.798Z,3.20
2018-08-04T22:43:45.160Z,3.20
2018-08-04T22:46:16.300Z,3.43
2018-08-04T22:48:49.494Z,3.10
2018-08-04T22:51:27.804Z,2.87
2018-08-04T22:53:57.191Z,2.63
2018-08-04T22:56:26.827Z,2.73
2018-08-04T22:58:55.911Z,3.03
2018-08-04T23:01:25.109Z,3.03
2018-08-04T23:03:54.310Z,2.90
2018-08-04T23:06:23.442Z,3.20
2018-08-04T23:08:52.615Z,3.27
2018-08-04T23:11:21.785Z,3.23
2018-08-04T23:13:51.014Z,2.93
2018-08-04T23:16:19.953Z,2.90
2018-08-04T23:18:49.089Z,3.00
2018-08-04T23:21:18.266Z,3.47
2018-08-04T23:23:47.512Z,2.90
2018-08-04T23:26:16.547Z,3.20
2018-08-04T23:28:45.572Z,2.90
2018-08-04T23:31:14.928Z,3.10
2018-08-04T23:33:44.588Z,3.13
2018-08-04T23:36:13.758Z,2.97
2018-08-04T23:38:43.811Z,3.30
2018-08-04T23:41:12.675Z,3.17
2018-08-04T23:43:42.038Z,3.80
2018-08-04T23:46:11.260Z,3.37
2018-08-04T23:48:40.549Z,3.90
2018-08-04T23:51:09.641Z,3.40
2018-08-04T23:53:38.861Z,3.60
2018-08-04T23:56:07.928Z,3.50
2018-08-04T23:58:37.120Z,3.70
